AirNav   Duncan Aviation - Near you to keep you flying
 
 1101 users online  

9IN1 Franciscan Health Indianapolis Heliport
Indianapolis, Indiana, USA

GOING TO INDIANAPOLIS?


FAA INFORMATION EFFECTIVE 26 JANUARY 2023

Location

FAA Identifier: 9IN1
Lat/Long: 39-38-50.6200N 086-04-48.1500W
39-38.843667N 086-04.802500W
39.6473944,-86.0800417
(estimated)
Elevation: 825 ft. / 251 m (estimated)
From city: 2 miles NE of INDIANAPOLIS, IN
Time zone: UTC -5 (UTC -4 during Daylight Saving Time)
Zip code: 46237

Heliport Operations

Heliport use: Private use. Permission required prior to landing
Activation date: 05/2006
Control tower: no
ARTCC: INDIANAPOLIS CENTER
FSS: TERRE HAUTE FLIGHT SERVICE STATION
Attendance: UNATNDD
Segmented circle: no
Lights: SS-SR

Heliport Communications

WX AWOS-3P at HFY (1.2 nm S): 118.525 (317-882-5862)
WX AWOS-3 at 8A4 (8 nm NW): 135.525 (317-955-3160)
WX ASOS at IND (11 nm NW): PHONE 317-241-0348
WX ASOS at GEZ (13 nm E): 121.55 (317-398-0246)
WX AWOS-3 at MQJ (14 nm NE): 124.175 (317-335-3037)
WX ASOS at EYE (15 nm NW): 121.575 (317-329-1754)
WX AWOS-3 at UMP (17 nm N): 119.375 (317-842-3911)
WX AWOS-3 at HBE (19 nm S): 119.675 (812-526-1745)
WX AWOS-3P at 2R2 (19 nm W): 118.025 (317-718-4872)

Nearby radio navigation aids

VOR radial/distance  VOR name  Freq  Var
SHBr273/11.8SHELBYVILLE VOR/DME116.1501E
VHPr126/16.6BRICKYARD VORTAC116.3001E
OOMr041/39.0HOOSIER VORTAC110.2002W

 
NDB name  Hdg/Dist  Freq  Var  ID
METROPOLITAN188/17.533803WUMP ..- -- .--.
NEW CASTLE254/37.838506WUWL ..- .-- .-..

Heliport Services

Runway Information

Helipad H1

Dimensions: 50 x 50 ft. / 15 x 15 m
Surface: concrete
Runway edge lights: PERI
Latitude: 39-38.843667N
Longitude: 086-04.802500W
Elevation: 825.0 ft.
Traffic pattern: leftleft

Heliport Ownership and Management from official FAA records

Ownership: Privately-owned
Owner: FRANCISCAN HEALTH INDIANAPOLIS
8111 SOUTH EMERSON AVE
INDIANAPOLIS, IN 46237
Phone 317-783-8407
Manager: KEITH RODEBECK
8111 SOUTH EMERSON AVE
INDIANAPOLIS, IN 46237
Phone (317) 528-8672

Additional Remarks

FOR CD CTC INDIANAPOLIS APCH AT 317-227-5743.

Instrument Procedures

There are no published instrument procedures at 9IN1.

Some nearby airports with instrument procedures:

KHFY - Indy South Greenwood Airport (1 nm S)
8A4 - Indianapolis Downtown Heliport (8 nm NW)
KIND - Indianapolis International Airport (11 nm NW)
KGEZ - Shelbyville Municipal Airport (13 nm E)
KMQJ - Indianapolis Regional Airport (14 nm NE)
KEYE - Eagle Creek Airpark (15 nm NW)
KUMP - Indianapolis Metro Airport (17 nm N)
2R2 - Hendricks County Airport-Gordon Graham Field (19 nm W)
 
Loc | Ops | Rwys | IFR | FBO | Links
Com | Nav | Svcs | Stats | Notes
Area around 9IN1 (Franciscan Health Indianapolis Heliport)
 
Road maps at: MapQuest Bing Google
 
Aerial photo
No photo
 
Sectional chart

 
Airport distance calculator
Flying to Franciscan Health Indianapolis Heliport? Find the distance to fly.

From to 9IN1

Sunrise and sunset
Times for 08-Feb-2023
 Local
(UTC-5)
 Zulu
(UTC)
Morning civil twilight07:1812:18
Sunrise07:4612:46
Sunset18:1123:11
Evening civil twilight18:3923:39

Current date and time
Zulu (UTC)  09-Feb-2023 01:49:57
Local (UTC-5)  08-Feb-2023 20:49:57
 
METAR
KHFY 090135Z AUTO 11006KT 7SM SCT016 BKN080 OVC090 07/07 A3010 RMK AO2 T00720070
KIND 
10nm NW 
090054Z 08009KT 6SM -RA BR OVC016 07/05 A3009 RMK AO2 SLP196 P0010 T00670050
KGEZ 
14nm E 
090053Z AUTO 09007KT 4SM RA BR SCT017 OVC047 08/06 A3011 RMK AO2 SLP202 P0011 T00780061
KMQJ 
14nm NE 
090135Z AUTO 07008KT 5SM SCT017 BKN050 OVC080 05/05 A3010 RMK AO1
KEYE 
15nm NW 
090053Z AUTO 07006KT 4SM RA BR BKN017 BKN050 OVC060 07/05 A3009 RMK AO2 SLP197 P0010 T00670050
KUMP 
17nm N 
090135Z AUTO 09003KT 7SM BKN018 BKN026 OVC070 07/07 A3009 RMK AO2 P0003 T00670067
TAF
KIND 
10nm NW 
082002Z 0820/0924 14005KT P6SM BKN200 FM090100 11009KT 2SM RA BR OVC008 FM091100 16025G40KT 6SM -SHRA BR OVC012 WS020/19055KT FM091600 21032G50KT P6SM -SHRA BKN018 FM092200 24025G38KT P6SM BKN018
NOTAMs
Click for the latest NOTAMs
NOTAMs are issued by the DoD/FAA and will open in a separate window not controlled by AirNav.

 

 
 

Would you like to see your business listed on this page?

 If your business provides an interesting product or service to pilots, flight crews, aircraft, or users of the Franciscan Health Indianapolis Heliport, you should consider listing it here.  To start the listing process, click on the button below
 
Add a business
 

Other Pages about Franciscan Health Indianapolis Heliport

Update a link
 
Copyright © AirNav, LLC. All rights reserved. Privacy Policy  Contact